createdAt,value
2018-07-19T00:02:20.818Z,75.10
2018-07-19T00:04:53.844Z,75.00
2018-07-19T00:07:26.793Z,75.20
2018-07-19T00:09:59.774Z,76.10
2018-07-19T00:12:32.632Z,75.10
2018-07-19T00:15:06.071Z,75.30
2018-07-19T00:17:39.172Z,75.50
2018-07-19T00:20:13.225Z,75.50
2018-07-19T00:22:45.988Z,75.70
2018-07-19T00:25:18.920Z,75.70
2018-07-19T00:27:52.139Z,76.20
2018-07-19T00:30:25.288Z,76.10
2018-07-19T00:32:58.223Z,75.90
2018-07-19T00:35:31.279Z,75.60
2018-07-19T00:38:04.224Z,75.60
2018-07-19T00:40:37.203Z,75.60
2018-07-19T00:43:10.107Z,76.00
2018-07-19T00:45:43.105Z,76.10
2018-07-19T00:48:16.255Z,76.10
2018-07-19T00:50:49.344Z,76.40
2018-07-19T00:53:22.543Z,76.50
2018-07-19T00:55:55.607Z,76.60
2018-07-19T00:58:29.097Z,76.80
2018-07-19T01:01:02.915Z,77.00
2018-07-19T01:03:36.160Z,77.30
2018-07-19T01:06:09.114Z,77.10
2018-07-19T01:08:42.284Z,77.20
2018-07-19T01:11:15.456Z,77.20
2018-07-19T01:13:48.644Z,77.20
2018-07-19T01:16:21.570Z,77.50
2018-07-19T01:18:54.945Z,77.70
2018-07-19T01:21:27.812Z,77.80
2018-07-19T01:24:00.941Z,77.90
2018-07-19T01:26:33.753Z,78.30
2018-07-19T01:29:06.815Z,78.10
2018-07-19T01:31:39.849Z,78.50
2018-07-19T01:34:13.071Z,78.50
2018-07-19T01:36:46.368Z,78.70
2018-07-19T01:39:25.815Z,79.40
2018-07-19T01:42:33.258Z,79.40
2018-07-19T01:45:06.986Z,80.10
2018-07-19T01:47:40.531Z,80.30
2018-07-19T01:50:14.510Z,80.50
2018-07-19T01:52:47.990Z,81.20
2018-07-19T01:55:22.775Z,82.10
2018-07-19T01:57:57.389Z,82.30
2018-07-19T02:00:31.202Z,82.70
2018-07-19T02:03:05.572Z,82.30
2018-07-19T02:05:43.268Z,83.20
2018-07-19T02:08:16.998Z,83.40
2018-07-19T02:10:53.244Z,83.30
2018-07-19T02:13:26.440Z,83.20
2018-07-19T02:15:59.445Z,83.40
2018-07-19T02:18:33.503Z,83.10
2018-07-19T02:21:07.323Z,83.00
2018-07-19T02:23:40.696Z,83.00
2018-07-19T02:26:14.817Z,83.20
2018-07-19T02:28:47.842Z,83.10
2018-07-19T02:31:22.603Z,83.20
2018-07-19T02:33:55.831Z,83.20
2018-07-19T02:36:35.201Z,83.20
2018-07-19T02:39:11.075Z,83.30
2018-07-19T02:41:45.105Z,83.10
2018-07-19T02:44:18.600Z,83.10
2018-07-19T02:46:52.189Z,83.50
2018-07-19T02:49:25.845Z,83.60
2018-07-19T02:52:02.559Z,83.90
2018-07-19T02:54:38.054Z,84.30
2018-07-19T02:57:11.459Z,85.30
2018-07-19T02:59:45.038Z,86.20
2018-07-19T03:02:20.558Z,85.70
2018-07-19T03:04:53.585Z,86.00
2018-07-19T03:07:27.907Z,86.40
2018-07-19T03:10:01.476Z,86.90
2018-07-19T03:12:36.005Z,87.30
2018-07-19T03:15:10.785Z,87.70
2018-07-19T03:17:43.849Z,89.30
2018-07-19T03:20:18.004Z,89.00
2018-07-19T03:22:51.378Z,88.70
2018-07-19T03:25:25.561Z,89.10
2018-07-19T03:28:00.349Z,89.10
2018-07-19T03:30:37.736Z,89.30
2018-07-19T03:33:10.664Z,89.80
2018-07-19T03:35:43.657Z,90.00
2018-07-19T03:40:48.371Z,90.10
2018-07-19T03:43:21.370Z,90.00
2018-07-19T03:45:54.311Z,89.90
2018-07-19T03:48:27.689Z,90.00
2018-07-19T03:51:00.673Z,89.80
2018-07-19T03:53:33.744Z,89.50
2018-07-19T03:56:06.629Z,89.40
2018-07-19T04:01:16.941Z,89.00
2018-07-19T04:03:50.442Z,88.50
2018-07-19T04:06:23.979Z,88.80
2018-07-19T04:08:57.726Z,88.60
2018-07-19T04:11:35.025Z,89.00
2018-07-19T04:14:08.289Z,89.10
2018-07-19T04:16:43.663Z,90.00
2018-07-19T04:19:16.715Z,89.80
2018-07-19T04:21:50.018Z,89.90
2018-07-19T04:24:25.210Z,90.30
2018-07-19T04:26:58.500Z,90.20
2018-07-19T04:29:31.902Z,90.40
2018-07-19T04:32:05.382Z,90.60
2018-07-19T04:34:38.416Z,90.80
2018-07-19T04:37:11.717Z,91.00
2018-07-19T04:39:45.078Z,90.90
2018-07-19T04:42:18.918Z,90.90
2018-07-19T04:44:52.088Z,90.90
2018-07-19T04:47:25.471Z,90.80
2018-07-19T04:49:59.210Z,91.00
2018-07-19T04:52:32.515Z,91.00
2018-07-19T04:55:05.977Z,91.30
2018-07-19T04:57:39.798Z,91.10
2018-07-19T05:00:12.881Z,91.20
2018-07-19T05:02:45.950Z,91.10
2018-07-19T05:05:19.460Z,91.00
2018-07-19T05:07:52.898Z,91.00
2018-07-19T05:10:27.275Z,91.00
2018-07-19T05:13:00.144Z,90.90
2018-07-19T05:15:34.514Z,91.10
2018-07-19T05:18:07.569Z,91.10
2018-07-19T05:20:41.641Z,91.50
2018-07-19T05:23:14.695Z,91.20
2018-07-19T05:25:48.027Z,91.20
2018-07-19T05:28:21.049Z,91.30
2018-07-19T05:30:54.107Z,91.20
2018-07-19T05:33:27.648Z,91.20
2018-07-19T05:36:00.742Z,91.30
2018-07-19T05:38:33.767Z,91.30
2018-07-19T05:41:07.530Z,91.20
2018-07-19T05:43:40.485Z,91.30
2018-07-19T05:46:13.844Z,91.40
2018-07-19T05:48:47.894Z,91.30
2018-07-19T05:51:20.985Z,91.40
2018-07-19T05:53:54.433Z,91.50
2018-07-19T05:56:27.920Z,91.50
2018-07-19T05:59:00.900Z,91.50
2018-07-19T06:01:33.979Z,91.50
2018-07-19T06:04:07.044Z,91.60
2018-07-19T06:06:40.043Z,91.60
2018-07-19T06:09:13.559Z,91.70
2018-07-19T06:11:47.009Z,91.70
2018-07-19T06:16:51.797Z,92.00
2018-07-19T06:19:24.888Z,92.10
2018-07-19T06:21:57.669Z,92.10
2018-07-19T06:24:30.611Z,92.10
2018-07-19T06:27:03.590Z,92.30
2018-07-19T06:29:36.464Z,92.30
2018-07-19T06:32:09.469Z,92.40
2018-07-19T06:34:42.448Z,92.40
2018-07-19T06:37:15.433Z,92.50
2018-07-19T06:39:48.327Z,92.40
2018-07-19T06:42:21.752Z,92.40
2018-07-19T06:44:55.637Z,92.30
2018-07-19T06:47:30.145Z,92.30
2018-07-19T06:50:03.324Z,92.60
2018-07-19T06:52:36.503Z,92.60
2018-07-19T06:55:09.635Z,92.70
2018-07-19T06:57:42.850Z,92.90
2018-07-19T07:00:15.764Z,93.00
2018-07-19T07:02:49.307Z,93.20
2018-07-19T07:05:22.989Z,93.30
2018-07-19T07:07:56.009Z,93.40
2018-07-19T07:10:28.880Z,93.30
2018-07-19T07:13:01.910Z,93.30
2018-07-19T07:15:34.952Z,93.10
2018-07-19T07:18:09.898Z,93.10
2018-07-19T07:20:49.026Z,93.10
2018-07-19T07:23:22.174Z,93.00
2018-07-19T07:25:56.264Z,93.10
2018-07-19T07:28:29.513Z,93.10
2018-07-19T07:31:02.511Z,93.20
2018-07-19T07:33:36.766Z,93.30
2018-07-19T07:36:09.970Z,93.20
2018-07-19T07:38:43.016Z,93.20
2018-07-19T07:41:15.960Z,93.00
2018-07-19T07:43:49.504Z,92.80
2018-07-19T07:46:22.482Z,92.60
2018-07-19T07:48:55.488Z,92.60
2018-07-19T07:51:28.939Z,92.60
2018-07-19T07:54:02.202Z,92.30
2018-07-19T07:56:35.268Z,92.30
2018-07-19T07:59:08.766Z,92.40
2018-07-19T08:01:41.805Z,92.50
2018-07-19T08:04:15.200Z,92.60
2018-07-19T08:09:16.635Z,92.70
2018-07-19T08:11:49.455Z,92.80
2018-07-19T08:14:22.973Z,93.00
2018-07-19T08:16:56.209Z,93.10
2018-07-19T08:19:29.241Z,93.10
2018-07-19T08:22:02.767Z,93.10
2018-07-19T08:24:36.153Z,93.10
2018-07-19T08:27:09.780Z,93.10
2018-07-19T08:29:43.081Z,93.30
2018-07-19T08:32:15.976Z,93.30
2018-07-19T08:34:49.232Z,93.30
2018-07-19T08:37:22.269Z,93.30
2018-07-19T08:39:55.666Z,93.30
2018-07-19T08:42:29.895Z,93.30
2018-07-19T08:45:03.118Z,93.20
2018-07-19T08:47:43.151Z,93.20
2018-07-19T08:50:16.722Z,93.10
2018-07-19T08:52:49.797Z,93.00
2018-07-19T08:55:22.664Z,93.10
2018-07-19T08:57:55.812Z,93.10
2018-07-19T09:00:30.612Z,93.30
2018-07-19T09:03:03.634Z,93.40
2018-07-19T09:05:36.693Z,93.50
2018-07-19T09:08:10.132Z,93.70
2018-07-19T09:10:42.945Z,93.80
2018-07-19T09:13:15.642Z,93.80
2018-07-19T09:15:48.526Z,93.90
2018-07-19T09:18:21.546Z,93.80
2018-07-19T09:20:55.501Z,93.80
2018-07-19T09:23:28.433Z,93.90
2018-07-19T09:26:01.256Z,93.90
2018-07-19T09:28:34.428Z,93.90
2018-07-19T09:31:07.456Z,93.50
2018-07-19T09:33:40.552Z,93.40
2018-07-19T09:36:13.590Z,93.50
2018-07-19T09:38:46.656Z,93.40
2018-07-19T09:41:19.921Z,93.40
2018-07-19T09:43:52.945Z,93.50
2018-07-19T09:46:26.193Z,93.50
2018-07-19T09:48:59.076Z,93.60
2018-07-19T09:51:32.768Z,93.70
2018-07-19T09:54:05.894Z,93.70
2018-07-19T09:56:39.084Z,93.80
2018-07-19T09:59:12.014Z,94.00
2018-07-19T10:01:45.523Z,93.90
2018-07-19T10:04:19.365Z,94.00
2018-07-19T10:06:52.416Z,94.10
2018-07-19T10:09:25.333Z,94.10
2018-07-19T10:11:58.572Z,94.20
2018-07-19T10:14:31.613Z,94.20
2018-07-19T10:17:04.753Z,94.10
2018-07-19T10:19:38.224Z,94.10
2018-07-19T10:22:11.810Z,94.10
2018-07-19T10:24:45.181Z,94.10
2018-07-19T10:27:18.377Z,94.10
2018-07-19T10:29:51.832Z,94.10
2018-07-19T10:32:25.287Z,94.10
2018-07-19T10:34:58.536Z,94.20
2018-07-19T10:37:31.589Z,94.10
2018-07-19T10:40:04.957Z,94.20
2018-07-19T10:42:37.825Z,94.00
2018-07-19T10:45:10.877Z,94.00
2018-07-19T10:47:43.932Z,93.80
2018-07-19T10:50:17.058Z,93.80
2018-07-19T10:52:50.031Z,93.80
2018-07-19T10:55:23.096Z,93.70
2018-07-19T10:57:56.000Z,93.70
2018-07-19T11:00:29.097Z,93.60
2018-07-19T11:03:03.273Z,93.60
2018-07-19T11:05:36.266Z,93.60
2018-07-19T11:08:09.287Z,93.60
2018-07-19T11:10:42.377Z,93.60
2018-07-19T11:13:15.129Z,93.50
2018-07-19T11:15:48.020Z,93.40
2018-07-19T11:18:20.987Z,93.60
2018-07-19T11:20:53.960Z,93.50
2018-07-19T11:23:26.811Z,93.40
2018-07-19T11:25:59.901Z,93.50
2018-07-19T11:28:32.695Z,93.40
2018-07-19T11:31:05.801Z,93.40
2018-07-19T11:33:38.641Z,93.50
2018-07-19T11:36:12.813Z,93.40
2018-07-19T11:38:45.765Z,93.40
2018-07-19T11:41:18.723Z,93.50
2018-07-19T11:43:51.672Z,93.60
2018-07-19T11:46:24.664Z,93.50
2018-07-19T11:48:57.898Z,93.50
2018-07-19T11:51:31.121Z,93.70
2018-07-19T11:54:04.052Z,93.80
2018-07-19T11:56:37.109Z,93.90
2018-07-19T11:59:19.279Z,93.90
2018-07-19T12:01:52.538Z,94.10
2018-07-19T12:04:25.412Z,94.20
2018-07-19T12:06:58.411Z,94.40
2018-07-19T12:09:33.057Z,94.10
2018-07-19T12:12:07.737Z,94.00
2018-07-19T12:14:40.885Z,93.90
2018-07-19T12:17:15.266Z,93.90
2018-07-19T12:19:48.474Z,93.90
2018-07-19T12:22:22.878Z,93.80
2018-07-19T12:25:05.839Z,93.60
2018-07-19T12:27:51.553Z,93.40
2018-07-19T12:30:35.395Z,93.20
2018-07-19T12:33:18.158Z,93.00
2018-07-19T12:35:54.439Z,92.90
2018-07-19T12:38:28.232Z,92.50
2018-07-19T12:49:46.261Z,91.80
2018-07-19T12:52:31.128Z,91.30
2018-07-19T12:55:08.027Z,90.70
2018-07-19T12:57:45.752Z,90.30
2018-07-19T13:00:27.314Z,90.30
2018-07-19T13:03:06.699Z,89.70
2018-07-19T13:05:43.925Z,89.60
2018-07-19T13:08:19.071Z,89.20
2018-07-19T13:10:53.497Z,89.60
2018-07-19T13:13:29.385Z,90.30
2018-07-19T13:16:04.755Z,90.30
2018-07-19T13:18:39.185Z,90.40
2018-07-19T13:21:11.884Z,90.40
2018-07-19T13:23:44.910Z,90.50
2018-07-19T13:26:17.555Z,90.00
2018-07-19T13:28:50.345Z,90.00
2018-07-19T13:31:24.956Z,89.70
2018-07-19T13:33:58.390Z,89.80
2018-07-19T13:36:31.168Z,89.40
2018-07-19T13:39:04.104Z,90.00
2018-07-19T13:41:37.138Z,89.90
2018-07-19T13:44:09.906Z,89.70
2018-07-19T13:46:43.219Z,88.30
2018-07-19T13:49:17.620Z,88.60
2018-07-19T13:51:50.322Z,89.10
2018-07-19T13:54:36.261Z,89.20
2018-07-19T13:57:09.280Z,89.30
2018-07-19T13:59:42.099Z,89.50
2018-07-19T14:02:15.429Z,89.50
2018-07-19T14:04:49.067Z,89.20
2018-07-19T14:07:22.041Z,88.60
2018-07-19T14:09:55.695Z,88.60
2018-07-19T14:12:29.482Z,88.50
2018-07-19T14:15:02.105Z,87.50
2018-07-19T14:17:35.071Z,87.00
2018-07-19T14:20:07.922Z,87.30
2018-07-19T14:22:40.995Z,86.60
2018-07-19T14:25:15.251Z,86.30
2018-07-19T14:27:48.417Z,85.40
2018-07-19T14:30:22.022Z,84.60
2018-07-19T14:32:55.251Z,84.40
2018-07-19T14:35:28.206Z,83.40
2018-07-19T14:38:03.513Z,82.10
2018-07-19T14:40:37.326Z,82.10
2018-07-19T14:43:10.553Z,80.80
2018-07-19T14:45:43.397Z,80.00
2018-07-19T14:48:16.030Z,79.00
2018-07-19T14:50:49.245Z,78.80
2018-07-19T14:53:22.775Z,78.60
2018-07-19T14:55:57.880Z,78.00
2018-07-19T14:58:31.801Z,76.00
2018-07-19T15:03:36.070Z,74.40
2018-07-19T15:06:10.436Z,74.60
2018-07-19T15:08:44.083Z,73.50
2018-07-19T15:11:17.230Z,70.30
2018-07-19T15:13:50.577Z,72.00
2018-07-19T15:16:23.498Z,68.80
2018-07-19T15:18:56.271Z,70.50
2018-07-19T15:21:29.633Z,68.80
2018-07-19T15:24:02.841Z,69.30
2018-07-19T15:26:36.033Z,69.60
2018-07-19T15:29:08.747Z,69.50
2018-07-19T17:23:59.585Z,58.40
2018-07-19T17:26:32.115Z,58.00
2018-07-19T17:29:04.971Z,57.50
2018-07-19T17:31:39.223Z,56.00
2018-07-19T17:34:11.896Z,55.00
2018-07-19T17:39:16.744Z,53.60
2018-07-19T17:41:49.678Z,51.30
2018-07-19T17:44:22.817Z,50.30
2018-07-19T17:46:56.089Z,49.90
2018-07-19T17:49:28.717Z,47.20
2018-07-19T17:52:02.222Z,46.80
2018-07-19T17:54:34.866Z,47.30
2018-07-19T17:57:08.341Z,46.40
2018-07-19T17:59:40.736Z,46.90
2018-07-19T18:02:13.303Z,47.30
2018-07-19T18:04:46.929Z,47.20
2018-07-19T18:07:19.384Z,47.20
2018-07-19T18:09:51.813Z,47.50
2018-07-19T18:12:25.186Z,47.30
2018-07-19T18:14:57.848Z,45.30
2018-07-19T18:17:31.225Z,44.90
2018-07-19T18:20:03.715Z,45.90
2018-07-19T18:25:08.854Z,43.70
2018-07-19T18:27:44.779Z,44.60
2018-07-19T18:30:17.937Z,44.60
2018-07-19T18:32:51.028Z,45.10
2018-07-19T18:35:27.355Z,45.00
2018-07-19T18:38:01.550Z,44.80
2018-07-19T18:40:40.822Z,44.70
2018-07-19T18:43:15.375Z,44.20
2018-07-19T18:45:49.531Z,44.10
2018-07-19T18:48:24.667Z,44.60
2018-07-19T18:51:03.226Z,44.70
2018-07-19T18:53:37.504Z,45.30
2018-07-19T18:56:10.648Z,45.70
2018-07-19T18:58:46.195Z,45.80
2018-07-19T19:01:18.800Z,46.10
2018-07-19T19:03:51.996Z,45.80
2018-07-19T19:06:24.538Z,46.40
2018-07-19T19:08:57.130Z,45.40
2018-07-19T19:11:32.000Z,46.00
2018-07-19T19:14:04.565Z,45.40
2018-07-19T19:16:37.266Z,44.30
2018-07-19T19:19:10.057Z,44.90
2018-07-19T19:21:43.060Z,44.00
2018-07-19T19:24:20.347Z,43.90
2018-07-19T19:26:53.064Z,43.90
2018-07-19T19:29:26.610Z,43.40
2018-07-19T19:31:59.440Z,42.30
2018-07-19T19:34:32.993Z,42.60
2018-07-19T19:37:06.506Z,40.40
2018-07-19T19:39:39.466Z,40.40
2018-07-19T19:42:12.114Z,41.30
2018-07-19T19:44:45.881Z,41.20
2018-07-19T19:47:21.970Z,40.50
2018-07-19T19:50:01.056Z,41.40
2018-07-19T19:52:35.307Z,40.50
2018-07-19T19:55:13.334Z,41.20
2018-07-19T19:57:45.927Z,41.60
2018-07-19T20:00:19.033Z,41.10
2018-07-19T20:02:56.043Z,39.60
2018-07-19T20:05:31.916Z,39.80
2018-07-19T20:08:06.224Z,38.40
2018-07-19T20:10:40.550Z,38.30
2018-07-19T20:13:15.290Z,39.20
2018-07-19T20:15:52.095Z,38.60
2018-07-19T20:18:25.126Z,37.80
2018-07-19T20:20:58.507Z,37.70
2018-07-19T20:23:32.265Z,37.00
2018-07-19T20:28:41.534Z,39.00
2018-07-19T20:31:18.905Z,39.20
2018-07-19T20:33:51.687Z,38.90
2018-07-19T20:36:25.395Z,38.90
2018-07-19T20:39:00.429Z,38.40
2018-07-19T20:41:34.014Z,38.70
2018-07-19T20:44:08.081Z,37.80
2018-07-19T20:46:41.951Z,38.50
2018-07-19T20:49:15.171Z,39.30
2018-07-19T20:51:48.008Z,39.50
2018-07-19T20:54:20.592Z,39.70
2018-07-19T20:56:53.654Z,39.50
2018-07-19T20:59:26.472Z,40.40
2018-07-19T21:01:59.139Z,39.70
2018-07-19T21:04:31.669Z,39.00
2018-07-19T21:09:58.390Z,38.40
2018-07-19T21:15:20.313Z,38.50
2018-07-19T21:17:53.441Z,38.70
2018-07-19T21:20:26.637Z,39.30
2018-07-19T21:22:59.746Z,39.30
2018-07-19T21:25:32.755Z,39.90
2018-07-19T21:28:06.044Z,39.20
2018-07-19T21:30:39.508Z,39.40
2018-07-19T21:33:12.701Z,39.20
2018-07-19T21:35:46.220Z,39.50
2018-07-19T21:39:48.823Z,40.30
2018-07-19T21:42:22.212Z,40.70
2018-07-19T21:44:56.457Z,41.70
2018-07-19T21:47:29.533Z,41.70
2018-07-19T21:50:02.919Z,41.70
2018-07-19T21:52:38.400Z,41.40
2018-07-19T21:55:11.567Z,41.40
2018-07-19T21:57:48.063Z,42.20
2018-07-19T22:00:26.232Z,43.10
2018-07-19T22:03:02.064Z,43.60
2018-07-19T22:05:37.270Z,44.60
2018-07-19T22:08:10.221Z,44.00
2018-07-19T22:10:43.812Z,43.50
2018-07-19T22:13:19.282Z,44.10
2018-07-19T22:15:53.474Z,44.50
2018-07-19T22:18:26.965Z,42.90
2018-07-19T22:21:00.063Z,43.70
2018-07-19T22:23:32.998Z,44.30
2018-07-19T22:26:05.980Z,44.20
2018-07-19T22:28:39.069Z,44.10
2018-07-19T22:31:11.992Z,44.20
2018-07-19T22:33:45.043Z,45.00
2018-07-19T22:36:18.156Z,45.10
2018-07-19T22:38:51.429Z,45.90
2018-07-19T22:41:24.307Z,45.60
2018-07-19T22:43:57.394Z,45.30
2018-07-19T22:46:30.752Z,45.10
2018-07-19T22:49:04.517Z,44.80
2018-07-19T22:51:37.834Z,47.00
2018-07-19T22:54:10.674Z,47.60
2018-07-19T22:56:43.700Z,48.20
2018-07-19T22:59:18.462Z,48.40
2018-07-19T23:01:51.613Z,48.40
2018-07-19T23:04:24.860Z,48.70
2018-07-19T23:06:59.324Z,49.60
2018-07-19T23:09:32.744Z,50.60
2018-07-19T23:12:07.452Z,51.00
2018-07-19T23:14:41.389Z,51.40
2018-07-19T23:17:15.237Z,51.40
2018-07-19T23:19:49.938Z,51.20
2018-07-19T23:22:22.967Z,50.60
2018-07-19T23:24:56.371Z,51.30
2018-07-19T23:27:29.563Z,51.60
2018-07-19T23:30:03.338Z,51.10
2018-07-19T23:32:36.695Z,51.40
2018-07-19T23:35:11.777Z,51.50
2018-07-19T23:37:47.043Z,51.90
2018-07-19T23:40:29.216Z,52.20
2018-07-19T23:43:10.345Z,52.80
2018-07-19T23:45:50.490Z,53.00
2018-07-19T23:48:24.066Z,53.00
2018-07-19T23:50:57.449Z,52.60
2018-07-19T23:53:30.520Z,52.90
2018-07-19T23:56:04.210Z,53.40
2018-07-19T23:58:37.125Z,53.80
